Terminal Aerodrome Forecast
Issued by NWS Missoula, MT

Home | Current Version | Previous Version | Text Only | Print | Product List | Glossary On
Versions: 1 2 3 4 5 6 7 8 9 10 11 12 13 14 15 16 17 18 19 20
000
FTUS45 KMSO 270527
TAFGPI
TAF
KGPI 270527Z 2706/2806 00000KT 2SM -SN BR BKN009 BKN030 OVC050
     FM271000 00000KT 1SM -SN BR FEW002 OVC030
     FM271700 19005KT 6SM BR VCSH SCT020 OVC040=

USA.gov is the U.S. government's official web portal to all federal, state and local government web resources and services.